GCFV Airport Information

Runway Information
Runway 01 Length 7874 ft width 148 ft
Elevation 37 ft Threshold 0 ft Heading 2
Runway 19 Length 7874 ft Width 148 ft
Elevation 75 ft Threshold 0 ft Heading 182
Airport Frequencies
Type APP Name CANARIAS A Frequency 129.3 MHZ
Type ATIS Name ATIS Frequency 118.65 MHZ
Type GND Name GND Frequency 121.7 MHZ
Type TWR Name TWR Frequency 118.5 MHZ
Airport Navaids
Type VOR-DME Name Fuerteventura Frequency 114100 KHZ
Airport Weather Information & NOTAM
ADDS - METARS form results

(0652 UTC 15 December 2018)
Data provider http://aviationweather.gov/metar/data/
 
METAR text: GCFV 150630Z 36013KT 9999 SCT030 18/14 Q1024
Conditions at: GCFV (FUERTEVENTURA AR, ES) observed 0630 UTC 15 December 2018
Temperature: 18.0°C (64°F)
Dewpoint: 14.0°C (57°F) [RH = 77%]
Pressure (altimeter): 30.24 inches Hg (1024.0 mb)
Winds: from the N (360 degrees) at 15 MPH (13 knots; 6.7 m/s)
Visibility: 6 or more miles (10+ km)
Ceiling: at least 12,000 feet AGL
Clouds: scattered clouds at 3000 feet AGL
Weather: no significant weather observed at this time

METAR text: GCFV 150600Z 36011KT 9999 SCT030 17/14 Q1024
Conditions at: GCFV (FUERTEVENTURA AR, ES) observed 0600 UTC 15 December 2018
Temperature: 17.0°C (63°F)
Dewpoint: 14.0°C (57°F) [RH = 82%]
Pressure (altimeter): 30.24 inches Hg (1024.0 mb)
Winds: from the N (360 degrees) at 13 MPH (11 knots; 5.7 m/s)
Visibility: 6 or more miles (10+ km)
Ceiling: at least 12,000 feet AGL
Clouds: scattered clouds at 3000 feet AGL
Weather: no significant weather observed at this time

Forecast for: GCFV (FUERTEVENTURA AR, ES)
Text: TAF GCFV 150200Z 1503/1603 34009KT 9999 SCT025 TX22/1514Z TN17/1506Z
Forecast period: 0300 to 0900 UTC 15 December 2018
Forecast type: FROM: standard forecast or significant change
Winds: from the NNW (340 degrees) at 10 MPH (9 knots; 4.6 m/s)
Visibility: 6 or more miles 10+ km)
Ceiling: at least 12,000 feet AGL
Clouds: scattered clouds at 2500 feet AGL
Weather: no significant weather forecast for this period
Text: BECMG 1509/1511 05016KT
Forecast period: 0900 UTC 15 December 2018 to 0300 UTC 16 December 2018
Forecast type: BECOMING: Conditions expected to become as follows by 1100 UTC 15 December 2018
Winds: from the NE (50 degrees) at 18 MPH (16 knots; 8.2 m/s)
Visibility: 6 or more miles 10+ km)
Ceiling: at least 12,000 feet AGL
Clouds: scattered clouds at 2500 feet AGL
Weather: no significant weather forecast for this period